Impacts METAR Board
IDs:

KPHX - Phoenix/Sky Harbor, AZ, US

Updated at: 1100 UTC 15 Jul 2020
Potential Impact None Slight Moderate High
Time 14/23Z 15/00Z 15/01Z 15/02Z 15/03Z 15/04Z 15/05Z 15/06Z 15/07Z 15/08Z 15/09Z 15/10Z 15/11Z
Temp109 110 109 108 105 105 100 98 98 97 97 96 92
Dewpt51 51 51 50 50 52 54 55 52 51 51 52 54
Altim29.76 29.73 29.71 29.71 29.72 29.73 29.76 29.77 29.78 29.77 29.77 29.78 29.80
VIS10 10 10 10 10 10 10 10 10 10 10 10 10
CIG250 290 290 290 290 -- -- -- -- -- -- -- --
CoverBKNBKNBKNBKNBKNFEWCLRCLRCLRCLRCLRCLRCLR
FltCatVFRVFRVFRVFRVFRVFRVFRVFRVFRVFRVFRVFRVFR
WX--------------------------
WDir150270320270260280220230250250290290160
WSpd6 11 8 16 12 11 6 4 6 5 5 7 5
WGst-- 15 16 -- -- -- -- -- -- -- -- -- --
Raw hourly METARs
KPHX 142251Z 15006KT 10SM FEW120 BKN250 43/11 A2976 RMK AO2 SLP052 T04280106
KPHX 142351Z 27011G15KT 10SM FEW120 SCT250 BKN290 43/11 A2973 RMK AO2 SLP045 T04330106 10439 20389 56025
KPHX 150051Z 32008G16KT 10SM FEW120 SCT250 BKN290 43/11 A2971 RMK AO2 SLP038 T04280106
KPHX 150151Z 27016KT 10SM FEW120 SCT250 BKN290 42/10 A2971 RMK AO2 WSHFT 0057 SLP038 T04220100
KPHX 150251Z 26012KT 10SM FEW120 SCT250 BKN290 41/10 A2972 RMK AO2 SLP039 T04060100 55006
KPHX 150351Z 28011KT 10SM FEW120 FEW250 41/11 A2973 RMK AO2 SLP044 T04060111
KPHX 150451Z 22006KT 10SM CLR 38/12 A2976 RMK AO2 SLP053 T03780122
KPHX 150551Z 23004KT 10SM CLR 37/13 A2977 RMK AO2 SLP057 T03670128 10433 20367 51018
KPHX 150651Z 25006KT 10SM CLR 37/11 A2978 RMK AO2 SLP059 T03670111 404390322
KPHX 150751Z 25005KT 10SM CLR 36/11 A2977 RMK AO2 SLP056 T03610106
KPHX 150851Z 29005KT 10SM CLR 36/11 A2977 RMK AO2 SLP056 T03610106 50000
KPHX 150951Z 29007KT 10SM CLR 36/11 A2978 RMK AO2 SLP061 T03560111
KPHX 151051Z 16005KT 10SM CLR 33/12 A2980 RMK AO2 SLP068 T03330122



Page loaded:  11:53 UTC  |   04:53 AM Pacific  |   05:53 AM Mountain  |   06:53 AM Central  |   07:53 AM Eastern

 

ADVISORIES

FORECASTS

FORECASTS

OBSERVATIONS

USER TOOLS

ABOUT US